sensor_id;sensor_type;location;lat;lon;timestamp;temperature;humidity
55721;DHT22;41626;53.098;6.168;2022-11-20T00:00:39;-0.50;99.90
55721;DHT22;41626;53.098;6.168;2022-11-20T00:03:05;-0.40;99.90
55721;DHT22;41626;53.098;6.168;2022-11-20T00:05:32;-0.40;99.90
55721;DHT22;41626;53.098;6.168;2022-11-20T00:07:58;-0.50;99.90
55721;DHT22;41626;53.098;6.168;2022-11-20T00:10:24;-0.40;99.90
55721;DHT22;41626;53.098;6.168;2022-11-20T00:12:50;-0.40;99.90
55721;DHT22;41626;53.098;6.168;2022-11-20T00:15:15;-0.50;99.90
55721;DHT22;41626;53.098;6.168;2022-11-20T00:17:41;-0.40;99.90
55721;DHT22;41626;53.098;6.168;2022-11-20T00:20:07;-0.40;99.90
55721;DHT22;41626;53.098;6.168;2022-11-20T00:22:33;-0.40;99.90
55721;DHT22;41626;53.098;6.168;2022-11-20T00:24:59;-0.50;99.90
55721;DHT22;41626;53.098;6.168;2022-11-20T00:27:24;-0.40;99.90
55721;DHT22;41626;53.098;6.168;2022-11-20T00:29:50;-0.40;99.90
55721;DHT22;41626;53.098;6.168;2022-11-20T00:32:16;-0.40;99.90
55721;DHT22;41626;53.098;6.168;2022-11-20T00:34:41;-0.40;99.90
55721;DHT22;41626;53.098;6.168;2022-11-20T00:37:07;-0.20;99.90
55721;DHT22;41626;53.098;6.168;2022-11-20T00:39:33;-0.30;99.90
55721;DHT22;41626;53.098;6.168;2022-11-20T00:41:58;-0.30;99.90
55721;DHT22;41626;53.098;6.168;2022-11-20T00:44:24;-0.40;99.90
55721;DHT22;41626;53.098;6.168;2022-11-20T00:46:49;-0.40;99.90
55721;DHT22;41626;53.098;6.168;2022-11-20T00:49:15;-0.40;99.90
55721;DHT22;41626;53.098;6.168;2022-11-20T00:51:41;-0.40;99.90
55721;DHT22;41626;53.098;6.168;2022-11-20T00:54:06;-0.60;99.90
55721;DHT22;41626;53.098;6.168;2022-11-20T00:56:32;-0.50;99.90
55721;DHT22;41626;53.098;6.168;2022-11-20T00:59:00;-0.50;99.90
55721;DHT22;41626;53.098;6.168;2022-11-20T01:01:27;-0.70;99.90
55721;DHT22;41626;53.098;6.168;2022-11-20T01:03:56;-0.60;99.90
55721;DHT22;41626;53.098;6.168;2022-11-20T01:06:24;-0.60;99.90
55721;DHT22;41626;53.098;6.168;2022-11-20T01:08:52;-0.60;99.90
55721;DHT22;41626;53.098;6.168;2022-11-20T01:11:24;-0.60;99.90
55721;DHT22;41626;53.098;6.168;2022-11-20T01:13:51;-0.70;99.90
55721;DHT22;41626;53.098;6.168;2022-11-20T01:18:46;-0.60;99.90
55721;DHT22;41626;53.098;6.168;2022-11-20T01:21:15;-0.70;99.90
55721;DHT22;41626;53.098;6.168;2022-11-20T01:23:42;-0.70;99.90
55721;DHT22;41626;53.098;6.168;2022-11-20T01:26:14;-0.60;99.90
55721;DHT22;41626;53.098;6.168;2022-11-20T01:28:40;-0.40;99.90
55721;DHT22;41626;53.098;6.168;2022-11-20T01:33:41;-0.40;99.90
55721;DHT22;41626;53.098;6.168;2022-11-20T01:36:07;-0.50;99.90
55721;DHT22;41626;53.098;6.168;2022-11-20T01:38:33;-0.40;99.90
55721;DHT22;41626;53.098;6.168;2022-11-20T01:40:59;-0.30;99.90
55721;DHT22;41626;53.098;6.168;2022-11-20T01:43:25;-0.30;99.90
55721;DHT22;41626;53.098;6.168;2022-11-20T01:46:05;-0.30;99.90
55721;DHT22;41626;53.098;6.168;2022-11-20T01:49:00;-0.40;99.90
55721;DHT22;41626;53.098;6.168;2022-11-20T01:51:32;-0.40;99.90
55721;DHT22;41626;53.098;6.168;2022-11-20T01:54:01;-0.30;99.90
55721;DHT22;41626;53.098;6.168;2022-11-20T01:56:31;-0.40;99.90
55721;DHT22;41626;53.098;6.168;2022-11-20T01:59:00;-0.30;99.90
55721;DHT22;41626;53.098;6.168;2022-11-20T02:01:27;-0.40;99.90
55721;DHT22;41626;53.098;6.168;2022-11-20T02:03:53;-0.40;99.90
55721;DHT22;41626;53.098;6.168;2022-11-20T02:06:23;-0.30;99.90
55721;DHT22;41626;53.098;6.168;2022-11-20T02:08:51;-0.20;99.90
55721;DHT22;41626;53.098;6.168;2022-11-20T02:11:18;-0.20;99.90
55721;DHT22;41626;53.098;6.168;2022-11-20T02:13:44;-0.10;99.90
55721;DHT22;41626;53.098;6.168;2022-11-20T02:18:42;-0.20;99.90
55721;DHT22;41626;53.098;6.168;2022-11-20T02:29:23;-0.20;99.90
55721;DHT22;41626;53.098;6.168;2022-11-20T02:31:50;-0.20;99.90
55721;DHT22;41626;53.098;6.168;2022-11-20T02:34:16;-0.20;99.90
55721;DHT22;41626;53.098;6.168;2022-11-20T02:36:42;-0.20;99.90
55721;DHT22;41626;53.098;6.168;2022-11-20T02:39:11;-0.20;99.90
55721;DHT22;41626;53.098;6.168;2022-11-20T02:41:38;-0.20;99.90
55721;DHT22;41626;53.098;6.168;2022-11-20T02:44:05;-0.20;99.90
55721;DHT22;41626;53.098;6.168;2022-11-20T02:46:31;-0.20;99.90
55721;DHT22;41626;53.098;6.168;2022-11-20T02:48:58;0.00;99.90
55721;DHT22;41626;53.098;6.168;2022-11-20T02:51:24;-0.10;99.90
55721;DHT22;41626;53.098;6.168;2022-11-20T02:53:50;-0.20;99.90
55721;DHT22;41626;53.098;6.168;2022-11-20T02:56:16;-0.20;99.90
55721;DHT22;41626;53.098;6.168;2022-11-20T02:58:41;-0.20;99.90
55721;DHT22;41626;53.098;6.168;2022-11-20T03:01:07;-0.20;99.90
55721;DHT22;41626;53.098;6.168;2022-11-20T03:03:33;-0.30;99.90
55721;DHT22;41626;53.098;6.168;2022-11-20T03:05:59;-0.30;99.90
55721;DHT22;41626;53.098;6.168;2022-11-20T03:08:25;-0.30;99.90
55721;DHT22;41626;53.098;6.168;2022-11-20T03:10:51;-0.30;99.90
55721;DHT22;41626;53.098;6.168;2022-11-20T03:13:17;-0.30;99.90
55721;DHT22;41626;53.098;6.168;2022-11-20T03:15:43;-0.30;99.90
55721;DHT22;41626;53.098;6.168;2022-11-20T03:18:08;-0.30;99.90
55721;DHT22;41626;53.098;6.168;2022-11-20T03:20:34;-0.30;99.90
55721;DHT22;41626;53.098;6.168;2022-11-20T03:23:00;-0.20;99.90
55721;DHT22;41626;53.098;6.168;2022-11-20T03:25:26;0.00;99.90
55721;DHT22;41626;53.098;6.168;2022-11-20T03:27:53;0.00;99.90
55721;DHT22;41626;53.098;6.168;2022-11-20T03:30:19;-0.10;99.90
55721;DHT22;41626;53.098;6.168;2022-11-20T03:32:44;0.00;99.90
55721;DHT22;41626;53.098;6.168;2022-11-20T03:35:10;0.00;99.90
55721;DHT22;41626;53.098;6.168;2022-11-20T03:37:36;0.10;99.90
55721;DHT22;41626;53.098;6.168;2022-11-20T03:40:02;0.10;99.90
55721;DHT22;41626;53.098;6.168;2022-11-20T03:42:27;0.10;99.90
55721;DHT22;41626;53.098;6.168;2022-11-20T03:45:18;0.10;99.90
55721;DHT22;41626;53.098;6.168;2022-11-20T03:47:44;0.20;99.90
55721;DHT22;41626;53.098;6.168;2022-11-20T03:50:12;0.20;99.90
55721;DHT22;41626;53.098;6.168;2022-11-20T03:52:39;0.20;99.90
55721;DHT22;41626;53.098;6.168;2022-11-20T03:55:06;0.30;99.90
55721;DHT22;41626;53.098;6.168;2022-11-20T03:57:32;0.30;99.90
55721;DHT22;41626;53.098;6.168;2022-11-20T03:59:58;0.30;99.90
55721;DHT22;41626;53.098;6.168;2022-11-20T04:02:23;0.30;99.90
55721;DHT22;41626;53.098;6.168;2022-11-20T04:04:49;0.30;99.90
55721;DHT22;41626;53.098;6.168;2022-11-20T04:07:15;0.20;99.90
55721;DHT22;41626;53.098;6.168;2022-11-20T04:09:40;0.30;99.90
55721;DHT22;41626;53.098;6.168;2022-11-20T04:12:06;0.30;99.90
55721;DHT22;41626;53.098;6.168;2022-11-20T04:14:32;0.30;99.90
55721;DHT22;41626;53.098;6.168;2022-11-20T04:16:58;0.30;99.90
55721;DHT22;41626;53.098;6.168;2022-11-20T04:19:23;0.30;99.90
55721;DHT22;41626;53.098;6.168;2022-11-20T04:21:49;0.30;99.90
55721;DHT22;41626;53.098;6.168;2022-11-20T04:24:15;0.20;99.90
55721;DHT22;41626;53.098;6.168;2022-11-20T04:26:40;0.10;99.90
55721;DHT22;41626;53.098;6.168;2022-11-20T04:29:09;0.20;99.90
55721;DHT22;41626;53.098;6.168;2022-11-20T04:31:35;0.20;99.90
55721;DHT22;41626;53.098;6.168;2022-11-20T04:34:04;0.20;99.90
55721;DHT22;41626;53.098;6.168;2022-11-20T04:36:30;0.20;99.90
55721;DHT22;41626;53.098;6.168;2022-11-20T04:39:01;0.20;99.90
55721;DHT22;41626;53.098;6.168;2022-11-20T04:41:30;0.20;99.90
55721;DHT22;41626;53.098;6.168;2022-11-20T04:43:58;0.10;99.90
55721;DHT22;41626;53.098;6.168;2022-11-20T04:46:32;0.10;99.90
55721;DHT22;41626;53.098;6.168;2022-11-20T04:48:59;0.10;99.90
55721;DHT22;41626;53.098;6.168;2022-11-20T04:51:24;0.20;99.90
55721;DHT22;41626;53.098;6.168;2022-11-20T04:53:50;0.10;99.90
55721;DHT22;41626;53.098;6.168;2022-11-20T04:56:16;0.10;99.90
55721;DHT22;41626;53.098;6.168;2022-11-20T04:58:42;0.10;99.90
55721;DHT22;41626;53.098;6.168;2022-11-20T05:01:16;0.10;99.90
55721;DHT22;41626;53.098;6.168;2022-11-20T05:03:43;0.10;99.90
55721;DHT22;41626;53.098;6.168;2022-11-20T05:06:11;0.10;99.90
55721;DHT22;41626;53.098;6.168;2022-11-20T05:08:37;0.10;99.90
55721;DHT22;41626;53.098;6.168;2022-11-20T05:11:06;0.20;99.90
55721;DHT22;41626;53.098;6.168;2022-11-20T05:13:32;0.20;99.90
55721;DHT22;41626;53.098;6.168;2022-11-20T05:16:06;0.20;99.90
55721;DHT22;41626;53.098;6.168;2022-11-20T05:18:34;0.30;99.90
55721;DHT22;41626;53.098;6.168;2022-11-20T05:21:00;0.20;99.90
55721;DHT22;41626;53.098;6.168;2022-11-20T05:23:26;0.20;99.90
55721;DHT22;41626;53.098;6.168;2022-11-20T05:25:56;0.20;99.90
55721;DHT22;41626;53.098;6.168;2022-11-20T05:28:22;0.20;99.90
55721;DHT22;41626;53.098;6.168;2022-11-20T05:30:49;0.10;99.90
55721;DHT22;41626;53.098;6.168;2022-11-20T05:33:15;0.10;99.90
55721;DHT22;41626;53.098;6.168;2022-11-20T05:35:41;0.10;99.90
55721;DHT22;41626;53.098;6.168;2022-11-20T05:38:07;0.10;99.90
55721;DHT22;41626;53.098;6.168;2022-11-20T05:40:32;0.20;99.90
55721;DHT22;41626;53.098;6.168;2022-11-20T05:42:59;0.20;99.90
55721;DHT22;41626;53.098;6.168;2022-11-20T05:45:25;0.30;99.90
55721;DHT22;41626;53.098;6.168;2022-11-20T05:47:51;0.30;99.90
55721;DHT22;41626;53.098;6.168;2022-11-20T05:50:17;0.30;99.90
55721;DHT22;41626;53.098;6.168;2022-11-20T05:52:42;0.30;99.90
55721;DHT22;41626;53.098;6.168;2022-11-20T05:55:08;0.30;99.90
55721;DHT22;41626;53.098;6.168;2022-11-20T05:57:34;0.30;99.90
55721;DHT22;41626;53.098;6.168;2022-11-20T06:00:01;0.30;99.90
55721;DHT22;41626;53.098;6.168;2022-11-20T06:02:26;0.40;99.90
55721;DHT22;41626;53.098;6.168;2022-11-20T06:04:52;0.40;99.90
55721;DHT22;41626;53.098;6.168;2022-11-20T06:07:18;0.30;99.90
55721;DHT22;41626;53.098;6.168;2022-11-20T06:09:43;0.30;99.90
55721;DHT22;41626;53.098;6.168;2022-11-20T06:12:09;0.30;99.90
55721;DHT22;41626;53.098;6.168;2022-11-20T06:14:35;0.40;99.90
55721;DHT22;41626;53.098;6.168;2022-11-20T06:17:00;0.40;99.90
55721;DHT22;41626;53.098;6.168;2022-11-20T06:19:26;0.40;99.90
55721;DHT22;41626;53.098;6.168;2022-11-20T06:21:52;0.30;99.90
55721;DHT22;41626;53.098;6.168;2022-11-20T06:24:18;0.30;99.90
55721;DHT22;41626;53.098;6.168;2022-11-20T06:26:44;0.30;99.90
55721;DHT22;41626;53.098;6.168;2022-11-20T06:29:10;0.30;99.90
55721;DHT22;41626;53.098;6.168;2022-11-20T06:31:36;0.20;99.90
55721;DHT22;41626;53.098;6.168;2022-11-20T06:34:06;0.30;99.90
55721;DHT22;41626;53.098;6.168;2022-11-20T06:36:32;0.30;99.90
55721;DHT22;41626;53.098;6.168;2022-11-20T06:38:59;0.30;99.90
55721;DHT22;41626;53.098;6.168;2022-11-20T06:41:24;0.30;99.90
55721;DHT22;41626;53.098;6.168;2022-11-20T06:43:50;0.30;99.90
55721;DHT22;41626;53.098;6.168;2022-11-20T06:46:18;0.20;99.90
55721;DHT22;41626;53.098;6.168;2022-11-20T06:48:45;0.20;99.90
55721;DHT22;41626;53.098;6.168;2022-11-20T06:51:12;0.20;99.90
55721;DHT22;41626;53.098;6.168;2022-11-20T06:53:38;0.10;99.90
55721;DHT22;41626;53.098;6.168;2022-11-20T06:56:04;0.20;99.90
55721;DHT22;41626;53.098;6.168;2022-11-20T06:58:31;0.10;99.90
55721;DHT22;41626;53.098;6.168;2022-11-20T07:01:02;0.10;99.90
55721;DHT22;41626;53.098;6.168;2022-11-20T07:03:28;0.00;99.90
55721;DHT22;41626;53.098;6.168;2022-11-20T07:05:58;0.00;99.90
55721;DHT22;41626;53.098;6.168;2022-11-20T07:08:25;0.00;99.90
55721;DHT22;41626;53.098;6.168;2022-11-20T07:10:51;-0.10;99.90
55721;DHT22;41626;53.098;6.168;2022-11-20T07:13:16;0.00;99.90
55721;DHT22;41626;53.098;6.168;2022-11-20T07:15:42;0.00;99.90
55721;DHT22;41626;53.098;6.168;2022-11-20T07:18:08;0.00;99.90
55721;DHT22;41626;53.098;6.168;2022-11-20T07:20:34;0.00;99.90
55721;DHT22;41626;53.098;6.168;2022-11-20T07:22:59;0.00;99.90
55721;DHT22;41626;53.098;6.168;2022-11-20T07:25:26;-0.10;99.90
55721;DHT22;41626;53.098;6.168;2022-11-20T07:27:53;-0.10;99.90
55721;DHT22;41626;53.098;6.168;2022-11-20T07:30:18;-0.10;99.90
55721;DHT22;41626;53.098;6.168;2022-11-20T07:32:50;-0.10;99.90
55721;DHT22;41626;53.098;6.168;2022-11-20T07:35:16;0.00;99.90
55721;DHT22;41626;53.098;6.168;2022-11-20T07:37:42;-0.10;99.90
55721;DHT22;41626;53.098;6.168;2022-11-20T07:40:08;0.00;99.90
55721;DHT22;41626;53.098;6.168;2022-11-20T07:42:34;0.00;99.90
55721;DHT22;41626;53.098;6.168;2022-11-20T07:45:00;0.00;99.90
55721;DHT22;41626;53.098;6.168;2022-11-20T07:47:25;0.00;99.90
55721;DHT22;41626;53.098;6.168;2022-11-20T07:49:51;0.10;99.90
55721;DHT22;41626;53.098;6.168;2022-11-20T07:52:17;0.10;99.90
55721;DHT22;41626;53.098;6.168;2022-11-20T07:54:42;0.20;99.90
55721;DHT22;41626;53.098;6.168;2022-11-20T07:57:08;0.20;99.90
55721;DHT22;41626;53.098;6.168;2022-11-20T07:59:34;0.20;99.90
55721;DHT22;41626;53.098;6.168;2022-11-20T08:01:59;0.20;99.90
55721;DHT22;41626;53.098;6.168;2022-11-20T08:04:25;0.20;99.90
55721;DHT22;41626;53.098;6.168;2022-11-20T08:06:52;0.20;99.90
55721;DHT22;41626;53.098;6.168;2022-11-20T08:09:18;0.20;99.90
55721;DHT22;41626;53.098;6.168;2022-11-20T08:11:43;0.10;99.90
55721;DHT22;41626;53.098;6.168;2022-11-20T08:14:28;0.30;99.90
55721;DHT22;41626;53.098;6.168;2022-11-20T08:16:54;0.20;99.90
55721;DHT22;41626;53.098;6.168;2022-11-20T08:19:20;0.20;99.90
55721;DHT22;41626;53.098;6.168;2022-11-20T08:21:46;0.10;99.90
55721;DHT22;41626;53.098;6.168;2022-11-20T08:24:12;0.20;99.90
55721;DHT22;41626;53.098;6.168;2022-11-20T08:26:39;0.20;99.90
55721;DHT22;41626;53.098;6.168;2022-11-20T08:29:05;0.20;99.90
55721;DHT22;41626;53.098;6.168;2022-11-20T08:31:31;0.30;99.90
55721;DHT22;41626;53.098;6.168;2022-11-20T08:33:57;0.30;99.90
55721;DHT22;41626;53.098;6.168;2022-11-20T08:36:24;0.30;99.90
55721;DHT22;41626;53.098;6.168;2022-11-20T08:38:52;0.30;99.90
55721;DHT22;41626;53.098;6.168;2022-11-20T08:41:18;0.40;99.90
55721;DHT22;41626;53.098;6.168;2022-11-20T08:43:56;0.50;99.90
55721;DHT22;41626;53.098;6.168;2022-11-20T08:46:26;0.50;99.90
55721;DHT22;41626;53.098;6.168;2022-11-20T08:48:52;0.60;99.90
55721;DHT22;41626;53.098;6.168;2022-11-20T08:51:18;0.60;99.90
55721;DHT22;41626;53.098;6.168;2022-11-20T08:53:45;0.60;99.90
55721;DHT22;41626;53.098;6.168;2022-11-20T08:56:10;0.60;99.90
55721;DHT22;41626;53.098;6.168;2022-11-20T08:58:37;0.70;99.90
55721;DHT22;41626;53.098;6.168;2022-11-20T09:01:03;0.70;99.90
55721;DHT22;41626;53.098;6.168;2022-11-20T09:03:29;0.70;99.90
55721;DHT22;41626;53.098;6.168;2022-11-20T09:05:59;0.70;99.90
55721;DHT22;41626;53.098;6.168;2022-11-20T09:08:25;0.80;99.90
55721;DHT22;41626;53.098;6.168;2022-11-20T09:10:52;0.80;99.90
55721;DHT22;41626;53.098;6.168;2022-11-20T09:13:19;0.80;99.90
55721;DHT22;41626;53.098;6.168;2022-11-20T09:15:44;0.80;99.90
55721;DHT22;41626;53.098;6.168;2022-11-20T09:18:10;0.60;99.90
55721;DHT22;41626;53.098;6.168;2022-11-20T09:20:36;0.70;99.90
55721;DHT22;41626;53.098;6.168;2022-11-20T09:23:02;0.70;99.90
55721;DHT22;41626;53.098;6.168;2022-11-20T09:25:28;0.60;99.90
55721;DHT22;41626;53.098;6.168;2022-11-20T09:28:00;0.60;99.90
55721;DHT22;41626;53.098;6.168;2022-11-20T09:30:26;0.60;99.90
55721;DHT22;41626;53.098;6.168;2022-11-20T09:32:53;0.70;99.90
55721;DHT22;41626;53.098;6.168;2022-11-20T09:35:18;0.90;99.90
55721;DHT22;41626;53.098;6.168;2022-11-20T09:37:44;0.80;99.90
55721;DHT22;41626;53.098;6.168;2022-11-20T09:40:23;0.80;99.90
55721;DHT22;41626;53.098;6.168;2022-11-20T09:43:13;0.80;99.90
55721;DHT22;41626;53.098;6.168;2022-11-20T09:46:08;1.00;99.90
55721;DHT22;41626;53.098;6.168;2022-11-20T09:52:09;0.90;99.90
55721;DHT22;41626;53.098;6.168;2022-11-20T09:54:40;0.90;99.90
55721;DHT22;41626;53.098;6.168;2022-11-20T09:57:17;1.00;99.90
55721;DHT22;41626;53.098;6.168;2022-11-20T09:59:49;1.20;99.90
55721;DHT22;41626;53.098;6.168;2022-11-20T10:02:28;1.30;99.90
55721;DHT22;41626;53.098;6.168;2022-11-20T10:05:18;1.40;99.90
55721;DHT22;41626;53.098;6.168;2022-11-20T10:10:43;1.40;99.90
55721;DHT22;41626;53.098;6.168;2022-11-20T10:13:19;1.20;99.90
55721;DHT22;41626;53.098;6.168;2022-11-20T10:16:13;1.30;99.90
55721;DHT22;41626;53.098;6.168;2022-11-20T10:18:57;1.40;99.90
55721;DHT22;41626;53.098;6.168;2022-11-20T10:24:30;1.40;99.90
55721;DHT22;41626;53.098;6.168;2022-11-20T10:27:09;1.70;99.90
55721;DHT22;41626;53.098;6.168;2022-11-20T10:29:43;1.80;99.90
55721;DHT22;41626;53.098;6.168;2022-11-20T10:32:16;2.00;99.90
55721;DHT22;41626;53.098;6.168;2022-11-20T10:34:50;2.00;99.90
55721;DHT22;41626;53.098;6.168;2022-11-20T10:37:29;1.90;99.90
55721;DHT22;41626;53.098;6.168;2022-11-20T10:42:45;2.10;99.90
55721;DHT22;41626;53.098;6.168;2022-11-20T10:47:54;2.20;99.90
55721;DHT22;41626;53.098;6.168;2022-11-20T10:50:21;2.20;99.90
55721;DHT22;41626;53.098;6.168;2022-11-20T10:53:08;2.10;99.90
55721;DHT22;41626;53.098;6.168;2022-11-20T10:55:51;2.10;99.90
55721;DHT22;41626;53.098;6.168;2022-11-20T10:58:25;2.20;99.90
55721;DHT22;41626;53.098;6.168;2022-11-20T11:00:51;2.30;99.90
55721;DHT22;41626;53.098;6.168;2022-11-20T11:03:25;2.50;99.90
55721;DHT22;41626;53.098;6.168;2022-11-20T11:06:07;2.70;99.90
55721;DHT22;41626;53.098;6.168;2022-11-20T11:08:40;2.70;99.90
55721;DHT22;41626;53.098;6.168;2022-11-20T11:11:30;2.80;99.90
55721;DHT22;41626;53.098;6.168;2022-11-20T11:14:09;2.90;99.90
55721;DHT22;41626;53.098;6.168;2022-11-20T11:16:35;2.90;99.90
55721;DHT22;41626;53.098;6.168;2022-11-20T11:19:13;3.00;99.90
55721;DHT22;41626;53.098;6.168;2022-11-20T11:21:50;2.70;99.90
55721;DHT22;41626;53.098;6.168;2022-11-20T11:24:29;2.80;99.90
55721;DHT22;41626;53.098;6.168;2022-11-20T11:29:23;3.00;99.90
55721;DHT22;41626;53.098;6.168;2022-11-20T11:32:06;3.00;99.90
55721;DHT22;41626;53.098;6.168;2022-11-20T11:34:32;3.00;99.90
55721;DHT22;41626;53.098;6.168;2022-11-20T11:36:59;3.00;99.90
55721;DHT22;41626;53.098;6.168;2022-11-20T11:39:27;3.10;99.90
55721;DHT22;41626;53.098;6.168;2022-11-20T11:41:54;3.10;99.90
55721;DHT22;41626;53.098;6.168;2022-11-20T11:44:28;3.10;99.90
55721;DHT22;41626;53.098;6.168;2022-11-20T11:49:48;3.10;99.90
55721;DHT22;41626;53.098;6.168;2022-11-20T11:52:21;3.20;99.90
55721;DHT22;41626;53.098;6.168;2022-11-20T11:54:55;3.20;99.90
55721;DHT22;41626;53.098;6.168;2022-11-20T11:57:33;3.20;99.90
55721;DHT22;41626;53.098;6.168;2022-11-20T12:00:28;3.20;99.90
55721;DHT22;41626;53.098;6.168;2022-11-20T12:03:04;3.10;99.90
55721;DHT22;41626;53.098;6.168;2022-11-20T12:05:45;3.10;99.90
55721;DHT22;41626;53.098;6.168;2022-11-20T12:08:35;3.10;99.90
55721;DHT22;41626;53.098;6.168;2022-11-20T12:14:01;3.20;99.90
55721;DHT22;41626;53.098;6.168;2022-11-20T12:16:32;3.20;99.90
55721;DHT22;41626;53.098;6.168;2022-11-20T12:19:00;3.10;99.90
55721;DHT22;41626;53.098;6.168;2022-11-20T12:21:48;3.10;99.90
55721;DHT22;41626;53.098;6.168;2022-11-20T12:35:41;3.20;99.90
55721;DHT22;41626;53.098;6.168;2022-11-20T12:38:44;3.30;99.90
55721;DHT22;41626;53.098;6.168;2022-11-20T12:53:37;3.30;99.90
55721;DHT22;41626;53.098;6.168;2022-11-20T12:56:43;3.20;99.90
55721;DHT22;41626;53.098;6.168;2022-11-20T13:02:30;3.10;99.90
55721;DHT22;41626;53.098;6.168;2022-11-20T13:05:16;3.10;99.90
55721;DHT22;41626;53.098;6.168;2022-11-20T13:07:43;3.10;99.90
55721;DHT22;41626;53.098;6.168;2022-11-20T13:10:43;3.20;99.90
55721;DHT22;41626;53.098;6.168;2022-11-20T13:13:27;3.30;99.90
55721;DHT22;41626;53.098;6.168;2022-11-20T13:16:18;3.20;99.90
55721;DHT22;41626;53.098;6.168;2022-11-20T13:18:45;3.20;99.90
55721;DHT22;41626;53.098;6.168;2022-11-20T13:21:19;3.20;99.90
55721;DHT22;41626;53.098;6.168;2022-11-20T13:23:46;3.20;99.90
55721;DHT22;41626;53.098;6.168;2022-11-20T13:26:20;3.10;99.90
55721;DHT22;41626;53.098;6.168;2022-11-20T13:28:59;3.00;99.90
55721;DHT22;41626;53.098;6.168;2022-11-20T13:31:35;3.00;99.90
55721;DHT22;41626;53.098;6.168;2022-11-20T13:34:05;2.90;99.90
55721;DHT22;41626;53.098;6.168;2022-11-20T13:36:31;2.90;99.90
55721;DHT22;41626;53.098;6.168;2022-11-20T13:38:59;2.90;99.90
55721;DHT22;41626;53.098;6.168;2022-11-20T13:44:38;2.90;99.90
55721;DHT22;41626;53.098;6.168;2022-11-20T13:47:26;2.80;99.90
55721;DHT22;41626;53.098;6.168;2022-11-20T13:49:54;2.90;99.90
55721;DHT22;41626;53.098;6.168;2022-11-20T13:57:59;2.90;99.90
55721;DHT22;41626;53.098;6.168;2022-11-20T14:00:30;2.80;99.90
55721;DHT22;41626;53.098;6.168;2022-11-20T14:05:34;2.80;99.90
55721;DHT22;41626;53.098;6.168;2022-11-20T14:08:02;2.80;99.90
55721;DHT22;41626;53.098;6.168;2022-11-20T14:10:29;2.90;99.90
55721;DHT22;41626;53.098;6.168;2022-11-20T14:12:55;2.80;99.90
55721;DHT22;41626;53.098;6.168;2022-11-20T14:15:32;2.80;99.90
55721;DHT22;41626;53.098;6.168;2022-11-20T14:17:59;2.80;99.90
55721;DHT22;41626;53.098;6.168;2022-11-20T14:20:29;2.80;99.90
55721;DHT22;41626;53.098;6.168;2022-11-20T14:22:56;2.80;99.90
55721;DHT22;41626;53.098;6.168;2022-11-20T14:25:26;2.80;99.90
55721;DHT22;41626;53.098;6.168;2022-11-20T14:28:00;2.70;99.90
55721;DHT22;41626;53.098;6.168;2022-11-20T14:30:44;2.70;99.90
55721;DHT22;41626;53.098;6.168;2022-11-20T14:33:12;2.70;99.90
55721;DHT22;41626;53.098;6.168;2022-11-20T14:35:50;2.60;99.90
55721;DHT22;41626;53.098;6.168;2022-11-20T14:38:19;2.70;99.90
55721;DHT22;41626;53.098;6.168;2022-11-20T14:40:46;2.60;99.90
55721;DHT22;41626;53.098;6.168;2022-11-20T14:43:30;2.60;99.90
55721;DHT22;41626;53.098;6.168;2022-11-20T14:46:08;2.70;99.90
55721;DHT22;41626;53.098;6.168;2022-11-20T14:48:44;2.60;99.90
55721;DHT22;41626;53.098;6.168;2022-11-20T14:51:11;2.50;99.90
55721;DHT22;41626;53.098;6.168;2022-11-20T14:53:37;2.50;99.90
55721;DHT22;41626;53.098;6.168;2022-11-20T14:56:03;2.50;99.90
55721;DHT22;41626;53.098;6.168;2022-11-20T14:58:32;2.50;99.90
55721;DHT22;41626;53.098;6.168;2022-11-20T15:01:06;2.50;99.90
55721;DHT22;41626;53.098;6.168;2022-11-20T15:03:40;2.50;99.90
55721;DHT22;41626;53.098;6.168;2022-11-20T15:06:07;2.50;99.90
55721;DHT22;41626;53.098;6.168;2022-11-20T15:08:35;2.40;99.90
55721;DHT22;41626;53.098;6.168;2022-11-20T15:11:01;2.40;99.90
55721;DHT22;41626;53.098;6.168;2022-11-20T15:13:32;2.40;99.90
55721;DHT22;41626;53.098;6.168;2022-11-20T15:16:00;2.40;99.90
55721;DHT22;41626;53.098;6.168;2022-11-20T15:18:40;2.30;99.90
55721;DHT22;41626;53.098;6.168;2022-11-20T15:21:11;2.30;99.90
55721;DHT22;41626;53.098;6.168;2022-11-20T15:23:37;2.30;99.90
55721;DHT22;41626;53.098;6.168;2022-11-20T15:26:07;2.30;99.90
55721;DHT22;41626;53.098;6.168;2022-11-20T15:28:36;2.20;99.90
55721;DHT22;41626;53.098;6.168;2022-11-20T15:31:03;2.20;99.90
55721;DHT22;41626;53.098;6.168;2022-11-20T15:33:30;2.20;99.90
55721;DHT22;41626;53.098;6.168;2022-11-20T15:35:57;2.20;99.90
55721;DHT22;41626;53.098;6.168;2022-11-20T15:38:23;2.20;99.90
55721;DHT22;41626;53.098;6.168;2022-11-20T15:40:48;2.20;99.90
55721;DHT22;41626;53.098;6.168;2022-11-20T15:43:14;2.10;99.90
55721;DHT22;41626;53.098;6.168;2022-11-20T15:45:47;2.10;99.90
55721;DHT22;41626;53.098;6.168;2022-11-20T15:50:55;2.20;99.90
55721;DHT22;41626;53.098;6.168;2022-11-20T15:53:22;2.20;99.90
55721;DHT22;41626;53.098;6.168;2022-11-20T15:55:48;2.20;99.90
55721;DHT22;41626;53.098;6.168;2022-11-20T15:58:14;2.20;99.90
55721;DHT22;41626;53.098;6.168;2022-11-20T16:00:42;2.10;99.90
55721;DHT22;41626;53.098;6.168;2022-11-20T16:03:11;2.10;99.90
55721;DHT22;41626;53.098;6.168;2022-11-20T16:05:37;2.20;99.90
55721;DHT22;41626;53.098;6.168;2022-11-20T16:08:02;2.20;99.90
55721;DHT22;41626;53.098;6.168;2022-11-20T16:10:28;2.20;99.90
55721;DHT22;41626;53.098;6.168;2022-11-20T16:12:54;2.20;99.90
55721;DHT22;41626;53.098;6.168;2022-11-20T16:15:38;2.10;99.90
55721;DHT22;41626;53.098;6.168;2022-11-20T16:18:12;2.10;99.90
55721;DHT22;41626;53.098;6.168;2022-11-20T16:20:38;2.10;99.90
55721;DHT22;41626;53.098;6.168;2022-11-20T16:23:04;2.10;99.90
55721;DHT22;41626;53.098;6.168;2022-11-20T16:25:30;2.10;99.90
55721;DHT22;41626;53.098;6.168;2022-11-20T16:27:55;2.20;99.90
55721;DHT22;41626;53.098;6.168;2022-11-20T16:30:22;2.20;99.90
55721;DHT22;41626;53.098;6.168;2022-11-20T16:32:48;2.20;99.90
55721;DHT22;41626;53.098;6.168;2022-11-20T16:35:14;2.20;99.90
55721;DHT22;41626;53.098;6.168;2022-11-20T16:37:39;2.20;99.90
55721;DHT22;41626;53.098;6.168;2022-11-20T16:40:06;2.20;99.90
55721;DHT22;41626;53.098;6.168;2022-11-20T16:42:35;2.20;99.90
55721;DHT22;41626;53.098;6.168;2022-11-20T16:45:01;2.20;99.90
55721;DHT22;41626;53.098;6.168;2022-11-20T16:47:27;2.20;99.90
55721;DHT22;41626;53.098;6.168;2022-11-20T16:49:53;2.10;99.90
55721;DHT22;41626;53.098;6.168;2022-11-20T16:52:19;2.10;99.90
55721;DHT22;41626;53.098;6.168;2022-11-20T16:54:44;2.00;99.90
55721;DHT22;41626;53.098;6.168;2022-11-20T16:57:10;2.00;99.90
55721;DHT22;41626;53.098;6.168;2022-11-20T16:59:35;2.00;99.90
55721;DHT22;41626;53.098;6.168;2022-11-20T17:02:02;2.00;99.90
55721;DHT22;41626;53.098;6.168;2022-11-20T17:04:28;2.00;99.90
55721;DHT22;41626;53.098;6.168;2022-11-20T17:06:53;2.00;99.90
55721;DHT22;41626;53.098;6.168;2022-11-20T17:09:19;2.00;99.90
55721;DHT22;41626;53.098;6.168;2022-11-20T17:11:45;2.00;99.90
55721;DHT22;41626;53.098;6.168;2022-11-20T17:14:12;2.00;99.90